createdAt,value
2023-07-06T00:00:18.234Z,7.15
2023-07-06T00:02:45.916Z,7.25
2023-07-06T00:05:13.350Z,6.68
2023-07-06T00:07:40.943Z,7.22
2023-07-06T00:10:08.905Z,7.82
2023-07-06T00:12:36.350Z,7.62
2023-07-06T00:15:05.391Z,7.60
2023-07-06T00:17:33.358Z,7.62
2023-07-06T00:20:00.848Z,7.47
2023-07-06T00:22:28.336Z,7.20
2023-07-06T00:24:58.830Z,7.12
2023-07-06T00:27:26.993Z,6.15
2023-07-06T00:30:13.033Z,7.50
2023-07-06T00:32:40.715Z,6.78
2023-07-06T00:35:11.333Z,7.10
2023-07-06T00:37:39.723Z,6.68
2023-07-06T00:40:09.482Z,6.12
2023-07-06T00:42:39.090Z,7.43
2023-07-06T00:45:11.741Z,6.78
2023-07-06T00:47:50.850Z,7.07
2023-07-06T00:50:25.078Z,6.68
2023-07-06T00:53:00.535Z,6.47
2023-07-06T00:55:31.214Z,6.30
2023-07-06T00:58:04.760Z,5.82
2023-07-06T01:00:32.437Z,5.53
2023-07-06T01:03:02.549Z,7.20
2023-07-06T01:05:31.658Z,6.62
2023-07-06T01:08:08.371Z,5.95
2023-07-06T01:10:35.867Z,6.43
2023-07-06T01:13:05.682Z,5.80
2023-07-06T01:15:39.206Z,5.70
2023-07-06T01:18:21.574Z,5.47
2023-07-06T01:20:57.247Z,5.78
2023-07-06T01:23:41.904Z,5.68
2023-07-06T01:26:14.621Z,5.30
2023-07-06T01:29:04.860Z,6.45
2023-07-06T01:31:43.763Z,5.68
2023-07-06T01:34:29.338Z,5.82
2023-07-06T01:37:06.983Z,5.03
2023-07-06T01:39:34.714Z,4.80
2023-07-06T01:42:11.302Z,5.05
2023-07-06T01:44:41.755Z,4.47
2023-07-06T01:47:09.980Z,4.97
2023-07-06T01:49:37.725Z,5.07
2023-07-06T01:52:26.078Z,4.57
2023-07-06T01:55:01.917Z,5.55
2023-07-06T01:57:46.660Z,5.47
2023-07-06T02:00:24.147Z,5.60
2023-07-06T02:02:54.952Z,4.70
2023-07-06T02:05:23.284Z,5.43
2023-07-06T02:07:50.927Z,4.75
2023-07-06T02:10:20.122Z,5.12
2023-07-06T02:12:50.330Z,5.18
2023-07-06T02:15:21.668Z,4.80
2023-07-06T02:17:56.571Z,5.07
2023-07-06T02:20:24.535Z,5.13
2023-07-06T02:22:52.966Z,4.65
2023-07-06T02:25:22.473Z,4.37
2023-07-06T02:27:50.300Z,5.03
2023-07-06T02:30:18.509Z,4.25
2023-07-06T02:32:47.456Z,4.93
2023-07-06T02:35:15.001Z,4.47
2023-07-06T02:37:43.134Z,4.22
2023-07-06T02:40:12.157Z,4.75
2023-07-06T02:42:43.275Z,4.65
2023-07-06T02:45:11.588Z,4.85
2023-07-06T02:47:39.426Z,4.32
2023-07-06T02:50:12.626Z,3.90
2023-07-06T02:52:43.801Z,4.05
2023-07-06T02:55:11.500Z,4.28
2023-07-06T02:57:41.953Z,3.90
2023-07-06T03:00:15.865Z,4.45
2023-07-06T03:02:44.472Z,4.55
2023-07-06T03:05:12.912Z,3.85
2023-07-06T03:07:41.078Z,4.10
2023-07-06T03:10:10.132Z,4.18
2023-07-06T03:12:38.540Z,3.87
2023-07-06T03:15:07.316Z,3.78
2023-07-06T03:17:34.761Z,4.05
2023-07-06T03:20:04.364Z,4.00
2023-07-06T03:22:32.455Z,3.50
2023-07-06T03:25:20.643Z,3.92
2023-07-06T03:27:48.630Z,4.10
2023-07-06T03:30:19.818Z,3.58
2023-07-06T03:32:47.483Z,3.40
2023-07-06T03:35:15.700Z,3.97
2023-07-06T03:37:44.121Z,3.12
2023-07-06T03:40:12.349Z,3.60
2023-07-06T03:42:41.510Z,3.58
2023-07-06T03:45:09.794Z,3.20
2023-07-06T03:47:39.033Z,3.72
2023-07-06T03:50:10.862Z,3.42
2023-07-06T03:52:41.154Z,2.95
2023-07-06T03:55:14.571Z,3.58
2023-07-06T03:57:54.716Z,2.90
2023-07-06T04:00:30.237Z,3.35
2023-07-06T04:02:59.371Z,3.40
2023-07-06T04:05:33.785Z,3.08
2023-07-06T04:08:13.751Z,3.42
2023-07-06T04:10:41.999Z,3.10
2023-07-06T04:13:11.271Z,3.87
2023-07-06T04:15:41.294Z,3.42
2023-07-06T04:18:09.022Z,3.45
2023-07-06T04:20:36.956Z,3.17
2023-07-06T04:23:05.378Z,2.90
2023-07-06T04:25:34.866Z,3.40
2023-07-06T04:28:12.106Z,3.05
2023-07-06T04:30:46.801Z,3.42
2023-07-06T04:33:20.351Z,3.42
2023-07-06T04:35:52.822Z,2.75
2023-07-06T04:38:26.279Z,2.62
2023-07-06T04:40:53.905Z,3.20
2023-07-06T04:43:21.915Z,3.10
2023-07-06T04:45:49.549Z,2.95
2023-07-06T04:48:18.142Z,2.90
2023-07-06T04:50:47.025Z,2.72
2023-07-06T04:53:14.928Z,3.22
2023-07-06T04:55:42.310Z,2.80
2023-07-06T04:58:10.589Z,2.58
2023-07-06T05:00:40.828Z,3.20
2023-07-06T05:03:09.139Z,3.10
2023-07-06T05:05:41.710Z,3.20
2023-07-06T05:08:11.515Z,3.33
2023-07-06T05:10:39.386Z,3.25
2023-07-06T05:13:07.984Z,3.00
2023-07-06T05:15:37.461Z,2.70
2023-07-06T05:18:07.485Z,2.92
2023-07-06T05:20:35.020Z,3.80
2023-07-06T05:23:04.595Z,3.03
2023-07-06T05:25:32.256Z,3.58
2023-07-06T05:27:59.642Z,3.83
2023-07-06T05:30:28.411Z,3.47
2023-07-06T05:32:56.747Z,3.72
2023-07-06T05:35:24.849Z,4.20
2023-07-06T05:37:53.223Z,4.18
2023-07-06T05:40:21.131Z,3.92
2023-07-06T05:42:48.599Z,4.15
2023-07-06T05:45:16.128Z,4.05
2023-07-06T05:47:44.041Z,4.10
2023-07-06T05:50:11.724Z,4.15
2023-07-06T05:52:43.064Z,3.72
2023-07-06T05:55:10.803Z,4.35
2023-07-06T05:57:38.248Z,4.47
2023-07-06T06:00:11.715Z,4.55
2023-07-06T06:02:40.964Z,5.12
2023-07-06T06:05:09.307Z,4.35
2023-07-06T06:07:36.875Z,4.70
2023-07-06T06:10:04.898Z,4.22
2023-07-06T06:12:34.411Z,4.03
2023-07-06T06:15:02.627Z,4.62
2023-07-06T06:17:31.969Z,3.95
2023-07-06T06:19:59.440Z,4.78
2023-07-06T06:22:27.094Z,4.47
2023-07-06T06:24:54.841Z,3.83
2023-07-06T06:27:23.657Z,4.18
2023-07-06T06:29:51.051Z,4.20
2023-07-06T06:32:18.777Z,4.28
2023-07-06T06:34:46.856Z,4.25
2023-07-06T06:37:14.276Z,4.37
2023-07-06T06:39:42.027Z,3.95
2023-07-06T06:42:10.727Z,3.62
2023-07-06T06:44:41.456Z,4.03
2023-07-06T06:47:09.232Z,4.07
2023-07-06T06:49:36.685Z,3.97
2023-07-06T06:52:05.778Z,3.72
2023-07-06T06:54:34.588Z,3.60
2023-07-06T06:57:04.251Z,3.50
2023-07-06T06:59:34.155Z,3.92
2023-07-06T07:02:04.067Z,3.83
2023-07-06T07:04:32.556Z,3.97
2023-07-06T07:07:04.850Z,4.03
2023-07-06T07:09:33.578Z,3.90
2023-07-06T07:12:01.609Z,3.97
2023-07-06T07:14:31.155Z,3.80
2023-07-06T07:16:58.984Z,4.03
2023-07-06T07:19:29.583Z,4.47
2023-07-06T07:22:01.732Z,4.18
2023-07-06T07:24:33.669Z,4.10
2023-07-06T07:27:01.699Z,3.92
2023-07-06T07:29:30.129Z,4.03
2023-07-06T07:31:57.863Z,4.03
2023-07-06T07:34:28.451Z,4.15
2023-07-06T07:36:55.869Z,4.18
2023-07-06T07:39:24.304Z,4.28
2023-07-06T07:41:53.803Z,4.43
2023-07-06T07:44:22.681Z,4.10
2023-07-06T07:46:50.377Z,3.67
2023-07-06T07:49:19.014Z,3.47
2023-07-06T07:51:47.354Z,4.30
2023-07-06T07:54:15.046Z,4.40
2023-07-06T07:56:44.082Z,4.03
2023-07-06T07:59:11.790Z,4.82
2023-07-06T08:01:39.825Z,3.90
2023-07-06T08:04:07.947Z,3.95
2023-07-06T08:06:35.385Z,4.10
2023-07-06T08:09:04.516Z,4.30
2023-07-06T08:11:32.983Z,4.30
2023-07-06T08:14:00.543Z,3.72
2023-07-06T08:16:29.915Z,4.22
2023-07-06T08:19:04.263Z,3.78
2023-07-06T08:22:04.597Z,3.40
2023-07-06T08:24:33.298Z,3.97
2023-07-06T08:27:00.835Z,3.42
2023-07-06T08:29:28.278Z,3.35
2023-07-06T08:31:57.545Z,3.87
2023-07-06T08:34:27.718Z,4.15
2023-07-06T08:36:56.208Z,4.22
2023-07-06T08:39:26.389Z,3.75
2023-07-06T08:41:56.370Z,3.60
2023-07-06T08:44:25.693Z,3.28
2023-07-06T08:46:56.478Z,4.10
2023-07-06T08:49:33.559Z,4.30
2023-07-06T08:52:06.695Z,4.03
2023-07-06T08:54:40.926Z,4.07
2023-07-06T08:57:17.215Z,4.30
2023-07-06T08:59:46.981Z,3.60
2023-07-06T09:02:18.589Z,4.15
2023-07-06T09:04:51.616Z,6.18
2023-07-06T09:07:25.607Z,3.78
2023-07-06T09:09:59.141Z,3.65
2023-07-06T09:12:37.546Z,3.58
2023-07-06T09:15:05.535Z,3.97
2023-07-06T09:17:33.833Z,3.80
2023-07-06T09:20:04.795Z,3.87
2023-07-06T09:22:32.191Z,3.50
2023-07-06T09:25:03.028Z,4.30
2023-07-06T09:27:30.491Z,4.00
2023-07-06T09:30:06.549Z,3.40
2023-07-06T09:32:35.866Z,3.42
2023-07-06T09:35:10.843Z,3.80
2023-07-06T09:37:46.817Z,2.80
2023-07-06T09:43:04.124Z,3.42
2023-07-06T09:45:32.385Z,3.58
2023-07-06T09:48:38.896Z,3.97
2023-07-06T09:51:10.652Z,3.50
2023-07-06T09:53:49.853Z,4.12
2023-07-06T09:56:17.710Z,3.62
2023-07-06T09:58:47.469Z,3.67
2023-07-06T10:01:36.606Z,4.10
2023-07-06T10:04:22.786Z,3.65
2023-07-06T10:07:02.764Z,3.47
2023-07-06T10:09:35.503Z,4.00
2023-07-06T10:12:18.994Z,3.47
2023-07-06T10:14:51.134Z,3.50
2023-07-06T10:17:44.268Z,4.00
2023-07-06T10:20:19.073Z,4.12
2023-07-06T10:23:05.737Z,3.50
2023-07-06T10:25:37.163Z,3.17
2023-07-06T10:28:11.989Z,4.35
2023-07-06T10:30:47.101Z,3.03
2023-07-06T10:33:38.916Z,3.62
2023-07-06T10:36:11.679Z,3.60
2023-07-06T10:38:39.113Z,3.37
2023-07-06T10:41:12.699Z,3.95
2023-07-06T10:43:42.109Z,4.00
2023-07-06T10:46:33.047Z,3.00
2023-07-06T10:49:21.244Z,3.17
2023-07-06T10:51:54.507Z,2.65
2023-07-06T10:54:21.901Z,3.28
2023-07-06T10:57:02.755Z,3.20
2023-07-06T10:59:42.826Z,3.67
2023-07-06T11:02:34.022Z,2.97
2023-07-06T11:05:16.627Z,3.10
2023-07-06T11:07:47.032Z,3.40
2023-07-06T11:10:14.375Z,3.25
2023-07-06T11:12:56.123Z,2.65
2023-07-06T11:15:46.421Z,2.65
2023-07-06T11:18:33.838Z,3.33
2023-07-06T11:21:10.023Z,3.40
2023-07-06T11:24:08.235Z,2.95
2023-07-06T11:27:05.371Z,3.50
2023-07-06T11:29:35.169Z,2.62
2023-07-06T11:32:20.662Z,3.15
2023-07-06T11:35:22.654Z,2.75
2023-07-06T11:38:14.975Z,2.90
2023-07-06T11:41:13.384Z,3.20
2023-07-06T11:44:00.879Z,3.30
2023-07-06T11:46:43.519Z,2.83
2023-07-06T11:49:44.454Z,2.78
2023-07-06T11:52:26.390Z,2.60
2023-07-06T11:55:06.637Z,3.10
2023-07-06T11:57:46.171Z,2.50
2023-07-06T12:00:44.373Z,3.05
2023-07-06T12:03:14.111Z,2.53
2023-07-06T12:05:46.045Z,2.58
2023-07-06T12:08:31.799Z,2.58
2023-07-06T12:11:03.976Z,3.03
2023-07-06T12:13:35.909Z,2.70
2023-07-06T12:16:14.546Z,2.90
2023-07-06T12:18:46.152Z,2.50
2023-07-06T12:21:36.571Z,3.03
2023-07-06T12:24:06.656Z,2.50
2023-07-06T12:26:36.168Z,2.80
2023-07-06T12:29:04.121Z,2.95
2023-07-06T12:31:32.222Z,3.00
2023-07-06T12:34:01.298Z,3.47
2023-07-06T12:36:34.757Z,2.65
2023-07-06T12:39:05.218Z,2.50
2023-07-06T12:41:38.361Z,2.20
2023-07-06T12:44:07.173Z,2.70
2023-07-06T12:46:35.894Z,2.72
2023-07-06T12:49:06.997Z,2.97
2023-07-06T12:51:37.718Z,2.90
2023-07-06T12:54:06.719Z,3.28
2023-07-06T12:56:35.532Z,2.65
2023-07-06T12:59:04.663Z,3.10
2023-07-06T13:01:34.308Z,2.80
2023-07-06T13:04:09.523Z,2.65
2023-07-06T13:06:42.033Z,3.15
2023-07-06T13:09:23.141Z,2.75
2023-07-06T13:11:54.082Z,2.62
2023-07-06T13:14:24.785Z,3.08
2023-07-06T13:16:57.652Z,2.67
2023-07-06T13:19:25.780Z,2.22
2023-07-06T13:21:56.734Z,3.00
2023-07-06T13:24:24.520Z,2.65
2023-07-06T13:26:52.393Z,3.00
2023-07-06T13:29:20.141Z,3.17
2023-07-06T13:31:55.253Z,3.00
2023-07-06T13:34:24.999Z,3.03
2023-07-06T13:36:54.521Z,2.55
2023-07-06T13:39:21.976Z,3.20
2023-07-06T13:41:50.933Z,3.35
2023-07-06T13:44:18.674Z,2.72
2023-07-06T13:46:48.374Z,2.83
2023-07-06T13:49:17.573Z,3.30
2023-07-06T13:51:45.137Z,3.00
2023-07-06T13:54:16.459Z,2.75
2023-07-06T13:56:49.702Z,3.62
2023-07-06T13:59:17.613Z,3.00
2023-07-06T14:01:48.429Z,2.50
2023-07-06T14:04:19.839Z,2.80
2023-07-06T14:06:47.241Z,2.70
2023-07-06T14:09:14.775Z,2.75
2023-07-06T14:11:42.600Z,3.00
2023-07-06T14:14:10.033Z,3.00
2023-07-06T14:16:37.788Z,2.60
2023-07-06T14:19:07.584Z,3.25
2023-07-06T14:21:35.222Z,3.10
2023-07-06T14:24:03.087Z,2.80
2023-07-06T14:26:31.247Z,2.90
2023-07-06T14:28:58.723Z,2.87
2023-07-06T14:31:28.686Z,2.72
2023-07-06T14:33:56.586Z,2.65
2023-07-06T14:36:23.967Z,2.70
2023-07-06T14:38:51.389Z,2.45
2023-07-06T14:41:19.069Z,2.45
2023-07-06T14:43:46.489Z,2.78
2023-07-06T14:46:13.981Z,2.78
2023-07-06T14:48:41.779Z,2.65
2023-07-06T14:51:11.039Z,2.37
2023-07-06T14:53:40.250Z,2.95
2023-07-06T14:56:09.554Z,2.78
2023-07-06T14:58:39.271Z,2.62
2023-07-06T15:01:07.749Z,2.50
2023-07-06T15:03:35.695Z,2.87
2023-07-06T15:06:08.139Z,2.65
2023-07-06T15:08:36.564Z,2.53
2023-07-06T15:11:03.996Z,3.08
2023-07-06T15:13:31.431Z,3.17
2023-07-06T15:16:00.971Z,2.72
2023-07-06T15:18:28.646Z,3.20
2023-07-06T15:21:16.875Z,2.90
2023-07-06T15:23:44.599Z,3.03
2023-07-06T15:26:12.353Z,3.40
2023-07-06T15:28:40.271Z,3.20
2023-07-06T15:31:09.811Z,3.37
2023-07-06T15:33:38.841Z,3.67
2023-07-06T15:36:06.380Z,3.85
2023-07-06T15:38:34.040Z,3.42
2023-07-06T15:41:01.529Z,3.37
2023-07-06T15:43:28.936Z,4.05
2023-07-06T15:45:57.661Z,3.55
2023-07-06T15:48:25.345Z,4.20
2023-07-06T15:50:53.623Z,4.00
2023-07-06T15:53:22.650Z,4.10
2023-07-06T15:55:57.367Z,3.40
2023-07-06T16:00:54.353Z,3.05
2023-07-06T16:03:23.470Z,4.00
2023-07-06T16:05:51.208Z,3.78
2023-07-06T16:08:20.641Z,3.40
2023-07-06T16:10:51.347Z,3.55
2023-07-06T16:13:19.099Z,3.87
2023-07-06T16:15:46.657Z,3.62
2023-07-06T16:18:14.467Z,4.07
2023-07-06T16:20:51.061Z,3.95
2023-07-06T16:23:18.830Z,4.22
2023-07-06T16:25:46.475Z,4.43
2023-07-06T16:28:13.931Z,4.43
2023-07-06T16:30:41.742Z,4.65
2023-07-06T16:33:09.301Z,4.30
2023-07-06T16:35:40.312Z,4.20
2023-07-06T16:38:09.227Z,4.75
2023-07-06T16:40:36.652Z,3.95
2023-07-06T16:43:04.091Z,5.12
2023-07-06T16:45:33.820Z,5.00
2023-07-06T16:48:01.372Z,5.18
2023-07-06T16:50:28.985Z,4.90
2023-07-06T16:52:56.724Z,4.00
2023-07-06T16:55:24.228Z,4.30
2023-07-06T16:57:51.685Z,4.28
2023-07-06T17:00:19.420Z,4.97
2023-07-06T17:02:47.225Z,4.68
2023-07-06T17:05:14.844Z,4.40
2023-07-06T17:07:42.527Z,4.32
2023-07-06T17:10:10.319Z,4.65
2023-07-06T17:12:37.933Z,4.60
2023-07-06T17:15:06.130Z,4.18
2023-07-06T17:17:33.902Z,3.72
2023-07-06T17:20:01.387Z,3.62
2023-07-06T17:22:29.130Z,4.03
2023-07-06T17:24:56.651Z,4.40
2023-07-06T17:27:24.134Z,3.72
2023-07-06T17:29:52.172Z,3.70
2023-07-06T17:32:19.999Z,4.12
2023-07-06T17:34:48.217Z,3.90
2023-07-06T17:37:18.225Z,3.75
2023-07-06T17:39:46.141Z,3.47
2023-07-06T17:42:15.128Z,3.45
2023-07-06T17:44:45.351Z,3.90
2023-07-06T17:47:13.234Z,3.95
2023-07-06T17:49:41.194Z,4.07
2023-07-06T17:52:09.999Z,4.35
2023-07-06T17:54:37.706Z,3.70
2023-07-06T17:57:05.869Z,4.18
2023-07-06T17:59:35.072Z,4.20
2023-07-06T18:02:02.750Z,4.45
2023-07-06T18:04:31.113Z,3.60
2023-07-06T18:06:59.281Z,4.15
2023-07-06T18:09:29.664Z,4.15
2023-07-06T18:11:59.590Z,4.35
2023-07-06T18:14:27.615Z,4.22
2023-07-06T18:16:55.801Z,4.30
2023-07-06T18:19:24.224Z,4.35
2023-07-06T18:21:52.086Z,4.78
2023-07-06T18:24:19.530Z,5.03
2023-07-06T18:26:47.315Z,5.15
2023-07-06T18:29:14.754Z,4.95
2023-07-06T18:31:42.203Z,4.65
2023-07-06T18:34:09.935Z,4.97
2023-07-06T18:36:37.401Z,5.03
2023-07-06T18:39:07.316Z,4.47
2023-07-06T18:41:35.207Z,5.03
2023-07-06T18:44:02.895Z,5.10
2023-07-06T18:46:30.447Z,5.40
2023-07-06T18:48:58.441Z,5.05
2023-07-06T18:51:26.202Z,5.53
2023-07-06T18:53:53.820Z,5.87
2023-07-06T18:56:21.986Z,5.47
2023-07-06T18:58:50.865Z,5.37
2023-07-06T19:01:18.367Z,5.87
2023-07-06T19:03:46.997Z,4.90
2023-07-06T19:06:18.468Z,5.47
2023-07-06T19:08:48.380Z,5.85
2023-07-06T19:11:18.156Z,5.53
2023-07-06T19:13:46.811Z,5.93
2023-07-06T19:16:17.808Z,5.50
2023-07-06T19:18:46.345Z,5.90
2023-07-06T19:21:14.659Z,6.03
2023-07-06T19:23:43.370Z,6.55
2023-07-06T19:26:10.958Z,5.57
2023-07-06T19:28:38.496Z,5.32
2023-07-06T19:31:07.125Z,5.68
2023-07-06T19:33:35.720Z,5.30
2023-07-06T19:36:24.215Z,5.97
2023-07-06T19:38:53.436Z,5.32
2023-07-06T19:41:21.481Z,5.78
2023-07-06T19:43:52.385Z,5.50
2023-07-06T19:46:22.171Z,5.57
2023-07-06T19:48:50.660Z,5.55
2023-07-06T19:51:21.763Z,5.05
2023-07-06T19:53:53.008Z,5.18
2023-07-06T19:56:22.335Z,5.55
2023-07-06T19:58:54.045Z,4.80
2023-07-06T20:01:22.220Z,5.37
2023-07-06T20:03:50.212Z,4.32
2023-07-06T20:06:19.928Z,4.82
2023-07-06T20:08:48.616Z,5.37
2023-07-06T20:11:16.581Z,4.53
2023-07-06T20:13:44.611Z,5.40
2023-07-06T20:16:13.041Z,4.50
2023-07-06T20:18:42.655Z,4.97
2023-07-06T20:21:10.582Z,4.93
2023-07-06T20:23:39.047Z,4.90
2023-07-06T20:26:08.419Z,5.10
2023-07-06T20:28:36.654Z,4.82
2023-07-06T20:31:06.427Z,4.60
2023-07-06T20:33:36.547Z,4.60
2023-07-06T20:36:07.148Z,4.90
2023-07-06T20:38:36.236Z,4.50
2023-07-06T20:41:04.853Z,4.80
2023-07-06T20:43:32.544Z,4.68
2023-07-06T20:46:01.281Z,4.35
2023-07-06T20:48:29.237Z,4.05
2023-07-06T20:50:58.317Z,3.92
2023-07-06T20:53:27.499Z,4.22
2023-07-06T20:55:55.359Z,4.37
2023-07-06T20:58:23.172Z,4.35
2023-07-06T21:00:51.336Z,4.22
2023-07-06T21:03:18.755Z,4.40
2023-07-06T21:05:50.308Z,3.70
2023-07-06T21:08:18.270Z,3.83
2023-07-06T21:10:45.714Z,3.85
2023-07-06T21:13:13.124Z,4.05
2023-07-06T21:15:40.795Z,3.83
2023-07-06T21:18:08.264Z,4.12
2023-07-06T21:20:36.876Z,3.92
2023-07-06T21:23:05.178Z,3.95
2023-07-06T21:25:32.608Z,3.97
2023-07-06T21:28:00.039Z,3.80
2023-07-06T21:30:27.816Z,3.75
2023-07-06T21:32:55.275Z,3.67
2023-07-06T21:35:22.728Z,3.47
2023-07-06T21:37:52.007Z,4.07
2023-07-06T21:40:19.419Z,3.90
2023-07-06T21:42:46.807Z,4.80
2023-07-06T21:45:14.513Z,4.32
2023-07-06T21:47:42.153Z,4.12
2023-07-06T21:50:10.107Z,4.20
2023-07-06T21:52:37.781Z,3.70
2023-07-06T21:55:05.582Z,6.43
2023-07-06T21:57:32.944Z,3.60
2023-07-06T22:00:00.659Z,4.10
2023-07-06T22:02:28.226Z,4.07
2023-07-06T22:04:55.924Z,4.30
2023-07-06T22:07:23.358Z,4.20
2023-07-06T22:09:50.758Z,3.67
2023-07-06T22:12:18.439Z,4.35
2023-07-06T22:14:45.922Z,4.30
2023-07-06T22:17:13.307Z,3.70
2023-07-06T22:19:41.013Z,3.83
2023-07-06T22:22:08.418Z,3.60
2023-07-06T22:24:35.813Z,3.90
2023-07-06T22:27:03.704Z,3.85
2023-07-06T22:29:31.119Z,3.75
2023-07-06T22:31:58.700Z,3.50
2023-07-06T22:34:26.448Z,3.60
2023-07-06T22:36:53.862Z,3.60
2023-07-06T22:39:21.266Z,3.15
2023-07-06T22:41:48.938Z,3.47
2023-07-06T22:44:16.384Z,4.07
2023-07-06T22:46:43.830Z,3.70
2023-07-06T22:49:11.478Z,3.50
2023-07-06T22:51:40.629Z,3.42
2023-07-06T22:54:08.812Z,3.62
2023-07-06T22:56:36.453Z,3.33
2023-07-06T22:59:03.810Z,2.95
2023-07-06T23:01:31.288Z,3.08
2023-07-06T23:04:00.203Z,3.15
2023-07-06T23:06:28.795Z,3.65
2023-07-06T23:08:58.716Z,3.60
2023-07-06T23:11:26.464Z,3.70
2023-07-06T23:13:55.575Z,3.67
2023-07-06T23:16:26.411Z,3.72
2023-07-06T23:18:55.426Z,3.22
2023-07-06T23:21:24.269Z,3.03
2023-07-06T23:23:51.996Z,3.60
2023-07-06T23:26:24.659Z,3.50
2023-07-06T23:28:52.869Z,3.33
2023-07-06T23:31:29.179Z,4.18
2023-07-06T23:34:03.348Z,4.10
2023-07-06T23:36:31.068Z,3.65
2023-07-06T23:39:00.303Z,3.90
2023-07-06T23:41:27.993Z,3.90
2023-07-06T23:43:56.743Z,3.65
2023-07-06T23:46:24.251Z,3.80
2023-07-06T23:48:53.658Z,3.42
2023-07-06T23:51:40.055Z,3.42
2023-07-06T23:54:07.523Z,2.87
2023-07-06T23:56:35.254Z,3.28
2023-07-06T23:59:02.954Z,3.45
